Latest Weather Observations for Marree Airport

IDS60801

Issued at 10:32 pm CST Tuesday 21 April 2015 (issued every 30 minutes, with the page automatically refreshed every 10 minutes)

About weather observations | Map of weather stations | Latest weather observations for SA | Other Formats
Station Details ID: 017126 Name: MARREE AERO Lat: -29.66 Lon: 138.07 Height: 50.0 m
Data from the previous 72 hours. | See also: Recent months for locations in South Australia
Date/Time
CST
Temp
°C
App
Temp
°C
Dew
Point
Rel
Hum
%
Delta-T
°C
Wind Press
QNH
hPa
Press
MSL
hPa
Rain
since 9 am
mm
Dir
 
Spd
km/h
Gust
km/h
Spd
kts
Gust
kts
21/10:30pm 12.1 8.5 2.8 53 4.0 S 11 13 6 7 1026.2 - 0.0
21/10:00pm 12.4 8.4 3.1 53 4.1 S 13 15 7 8 1026.3 - 0.0
21/09:30pm 13.3 9.7 2.8 49 4.6 SSE 11 11 6 6 1026.3 - 0.0
21/09:00pm 14.4 11.4 2.3 44 5.3 SE 7 9 4 5 1026.2 1026.1 0.0
21/08:30pm 14.9 11.6 2.4 43 5.5 SE 9 11 5 6 1026.1 - 0.0
21/08:00pm 15.8 11.7 2.2 40 6.1 SE 13 19 7 10 1026.1 - 0.0
21/07:30pm 17.0 12.1 2.2 37 6.7 S 17 20 9 11 1025.6 - 0.0
21/07:00pm 17.8 12.5 1.7 34 7.2 S 19 22 10 12 1025.3 - 0.0
21/06:30pm 17.9 13.2 0.6 31 7.6 S 15 17 8 9 1025.0 - 0.0
21/06:00pm 19.4 14.1 -0.6 26 8.7 S 17 24 9 13 1024.9 1024.8 0.0
21/05:30pm 20.6 14.8 -1.2 23 9.5 SSE 19 22 10 12 1024.8 - 0.0
21/05:00pm 21.1 15.2 -0.8 23 9.6 S 20 28 11 15 1024.8 - 0.0
21/04:30pm 21.3 15.7 -0.1 24 9.6 S 19 26 10 14 1024.9 - 0.0
21/04:00pm 20.9 15.6 -0.4 24 9.4 S 17 26 9 14 1025.2 - 0.0
21/03:30pm 21.1 16.1 1.4 27 9.0 S 17 26 9 14 1025.3 - 0.0
21/03:00pm 20.7 16.3 0.5 26 9.0 SSW 13 28 7 15 1025.6 1025.5 0.0
21/02:30pm 20.5 16.5 0.4 26 9.0 SSE 11 19 6 10 1025.9 - 0.0
21/02:00pm 20.6 15.9 1.0 27 8.9 SSE 15 26 8 14 1026.5 - 0.0
21/01:30pm 19.6 15.7 1.1 29 8.3 S 11 30 6 16 1027.1 - 0.0
21/01:00pm 19.3 14.3 1.3 30 8.1 SSE 17 28 9 15 1027.8 - 0.0
21/12:30pm 19.0 13.9 0.6 29 8.2 SE 17 28 9 15 1028.3 - 0.0
21/12:00pm 18.0 12.9 0.6 31 7.6 SSE 17 26 9 14 1028.8 1028.7 0.0
21/11:30am 17.8 12.3 1.7 34 7.2 SE 20 30 11 16 1029.5 - 0.0
21/11:00am 17.1 10.9 1.9 36 6.8 SE 24 33 13 18 1030.0 - 0.0
21/10:30am 16.5 9.9 1.8 37 6.6 SE 26 33 14 18 1030.2 - 0.0
21/10:00am 15.9 9.0 2.7 41 6.0 SE 28 35 15 19 1030.7 - 0.0
21/09:30am 15.4 9.4 3.2 44 5.5 SE 24 30 13 16 1031.2 - 0.0
21/09:00am 14.6 7.9 3.7 48 4.9 SSE 28 33 15 18 1031.2 1031.0 0.0
21/08:30am 13.6 7.6 3.4 50 4.6 SSE 24 32 13 17 1030.9 - 0.0
21/08:00am 12.3 7.3 3.5 55 3.9 SSE 19 26 10 14 1031.1 - 0.0
21/07:30am 10.5 5.4 3.1 60 3.2 SSE 19 24 10 13 1030.6 - 0.0
21/07:00am 9.3 4.0 2.9 64 2.7 SSE 20 24 11 13 1030.2 - 0.0
21/06:30am 9.2 3.1 2.8 64 2.7 S 24 28 13 15 1029.9 - 0.0
21/06:00am 8.8 3.1 2.8 66 2.5 S 22 26 12 14 1030.0 1029.9 0.0
21/05:30am 9.1 4.0 2.9 65 2.6 S 19 20 10 11 1030.1 - 0.0
21/05:00am 9.0 3.9 2.8 65 2.6 S 19 20 10 11 1029.9 - 0.0
21/04:30am 8.8 4.8 2.6 65 2.6 S 13 17 7 9 1029.7 - 0.0
21/04:00am 9.3 4.2 2.9 64 2.7 SSE 19 20 10 11 1029.6 - 0.0
21/03:30am 9.4 4.6 2.7 63 2.9 SSE 17 20 9 11 1029.8 - 0.0
21/03:00am 9.5 4.7 2.4 61 3.0 SSE 17 20 9 11 1030.0 1029.9 0.0
21/02:30am 9.4 4.0 2.5 62 2.9 SSE 20 22 11 12 1030.3 - 0.0
21/02:00am 8.5 3.3 2.3 65 2.6 SSE 19 20 10 11 1030.7 - 0.0
21/01:30am 8.6 5.2 2.0 63 2.7 S 9 11 5 6 1031.2 - 0.0
21/01:00am 8.6 4.0 1.7 62 2.9 SSE 15 15 8 8 1031.4 - 0.0
21/12:30am 9.2 5.0 1.6 59 3.1 SSE 13 15 7 8 1031.5 - 0.0
21/12:00am 10.3 6.0 1.2 53 3.7 SSE 13 17 7 9 1031.5 1031.3 0.0
 
Date/Time
CST
Temp
°C
App
Temp
°C
Dew
Point
Rel
Hum
%
Delta-T
°C
Wind Press
QNH
hPa
Press
MSL
hPa
Rain
since 9 am
mm
Dir
 
Spd
km/h
Gust
km/h
Spd
kts
Gust
kts
20/11:30pm 10.9 5.9 1.2 51 4.1 SSE 17 19 9 10 1031.6 - 0.0
20/11:00pm 11.8 6.3 0.9 47 4.6 SSE 19 20 10 11 1031.7 - 0.0
20/10:30pm 12.1 6.4 0.8 46 4.7 SSE 20 26 11 14 1031.9 - 0.0
20/10:00pm 11.4 6.4 1.1 49 4.3 SSE 17 19 9 10 1031.9 - 0.0
20/09:30pm 11.5 6.8 1.2 49 4.3 SSE 15 17 8 9 1032.0 - 0.0
20/09:00pm 12.4 7.6 0.5 44 4.9 SSE 15 17 8 9 1032.0 1031.9 0.0
20/08:30pm 13.1 8.7 0.2 41 5.4 SSE 13 15 7 8 1031.6 - 0.0
20/08:00pm 14.0 8.8 -0.1 38 5.9 SSE 17 20 9 11 1031.3 - 0.0
20/07:30pm 14.2 9.7 -0.3 37 6.0 SE 13 15 7 8 1030.9 - 0.0
20/07:00pm 15.2 10.8 0.2 36 6.4 SE 13 15 7 8 1030.7 - 0.0
20/06:30pm 16.2 10.5 -0.5 32 7.1 SE 19 22 10 12 1030.5 - 0.0
20/06:00pm 17.2 10.9 -1.0 29 7.6 SE 22 28 12 15 1030.1 1030.0 0.0
20/05:30pm 18.0 10.8 -1.8 26 8.3 SE 26 32 14 17 1030.0 - 0.0
20/05:00pm 18.8 11.6 -2.2 24 8.8 SE 26 35 14 19 1029.9 - 0.0
20/04:30pm 19.1 11.0 -3.1 22 9.2 SE 30 37 16 20 1029.9 - 0.0
20/04:00pm 19.8 11.6 -3.8 20 9.7 SE 30 39 16 21 1030.1 - 0.0
20/03:30pm 19.5 10.8 -4.7 19 9.7 SE 32 41 17 22 1030.2 - 0.0
20/03:00pm 19.2 11.0 -4.3 20 9.4 SE 30 41 16 22 1030.4 1030.3 0.0
20/02:30pm 19.2 11.5 -3.0 22 9.2 SSE 28 39 15 21 1030.4 - 0.0
20/02:00pm 19.5 12.7 -2.2 23 9.1 SSE 24 39 13 21 1030.7 - 0.0
20/01:30pm 18.5 12.5 -1.3 26 8.4 SE 20 33 11 18 1031.3 - 0.0
20/01:00pm 18.4 12.3 0.5 30 7.9 SSE 22 28 12 15 1032.0 - 0.0
20/12:30pm 17.3 12.2 0.5 32 7.3 SSE 17 28 9 15 1032.6 - 0.0
20/12:00pm 16.5 10.9 0.2 33 7.0 S 19 30 10 16 1033.2 1033.1 0.0
20/11:30am 15.7 9.6 0.3 35 6.6 SE 22 35 12 19 1034.0 - 0.0
20/11:00am 15.9 9.5 0.9 36 6.5 SE 24 33 13 18 1034.2 - 0.0
20/10:30am 15.7 8.6 1.1 37 6.4 SE 28 50 15 27 1034.5 - 0.0
20/10:28am 15.4 8.2 0.8 37 6.3 SE 28 52 15 28 1034.5 - 0.0
20/10:00am 15.5 9.4 2.7 42 5.8 SE 24 32 13 17 1034.6 - 0.0
20/09:55am 15.0 7.9 1.2 39 6.0 SE 28 46 15 25 1034.6 - 0.0
20/09:30am 14.9 9.6 3.1 45 5.3 SSE 20 28 11 15 1034.7 - 0.0
20/09:00am 13.4 7.5 2.0 46 4.9 SSE 22 26 12 14 1034.7 1034.6 0.0
20/08:30am 12.2 7.5 3.2 54 4.0 SE 17 22 9 12 1034.7 - 0.0
20/08:00am 10.7 5.7 3.7 62 3.1 SSE 19 24 10 13 1034.4 - 0.0
20/07:30am 8.8 4.6 3.8 71 2.2 SSE 15 19 8 10 1034.1 - 0.0
20/07:00am 7.5 2.8 3.4 75 1.7 SSE 17 22 9 12 1033.8 - 0.0
20/06:30am 8.2 3.1 3.3 71 2.1 SSE 19 20 10 11 1033.7 - 0.0
20/06:00am 8.4 3.7 3.3 70 2.2 S 17 19 9 10 1033.8 1033.7 0.0
20/05:30am 9.3 4.6 3.3 66 2.6 S 17 24 9 13 1033.8 - 0.0
20/05:00am 9.5 4.3 3.7 67 2.5 S 20 24 11 13 1033.4 - 0.0
20/04:30am 8.4 4.2 3.8 73 2.0 S 15 17 8 9 1033.5 - 0.0
20/04:00am 9.5 4.9 3.9 68 2.5 S 17 20 9 11 1033.4 - 0.0
20/03:30am 9.1 5.2 3.5 68 2.4 S 13 17 7 9 1033.2 - 0.0
20/03:00am 8.8 5.0 3.8 71 2.2 SSW 13 15 7 8 1033.3 1033.2 0.0
20/02:30am 10.0 5.8 4.0 66 2.7 S 15 17 8 9 1033.2 - 0.0
20/02:00am 9.7 5.5 3.9 67 2.6 S 15 17 8 9 1033.3 - 0.0
20/01:30am 10.0 5.4 3.7 65 2.8 S 17 19 9 10 1033.0 - 0.0
20/01:00am 11.2 6.5 3.3 58 3.5 SE 17 22 9 12 1032.7 - 0.0
20/12:30am 11.3 6.3 3.6 59 3.4 SE 19 20 10 11 1032.5 - 0.0
20/12:00am 11.4 7.2 3.7 59 3.4 SE 15 19 8 10 1032.7 1032.6 0.0
 
Date/Time
CST
Temp
°C
App
Temp
°C
Dew
Point
Rel
Hum
%
Delta-T
°C
Wind Press
QNH
hPa
Press
MSL
hPa
Rain
since 9 am
mm
Dir
 
Spd
km/h
Gust
km/h
Spd
kts
Gust
kts
19/11:30pm 11.7 6.8 4.0 59 3.5 SSE 19 20 10 11 1033.0 - 0.0
19/11:00pm 12.3 7.7 3.5 55 3.9 SSE 17 20 9 11 1033.0 - 0.0
19/10:30pm 13.2 7.6 3.3 51 4.4 SSE 22 26 12 14 1032.9 - 0.0
19/10:00pm 13.7 8.1 3.2 49 4.7 SSE 22 28 12 15 1032.8 - 0.0
19/09:30pm 14.6 8.6 3.1 46 5.2 SE 24 30 13 16 1032.7 - 0.0
19/09:00pm 15.2 9.1 3.0 44 5.5 SE 24 35 13 19 1032.4 1032.3 0.0
19/08:30pm 15.0 9.8 3.5 46 5.2 SE 20 26 11 14 1032.0 - 0.0
19/08:00pm 15.8 10.2 3.3 43 5.7 SE 22 26 12 14 1031.7 - 0.0
19/07:30pm 16.2 10.6 3.6 43 5.8 SE 22 30 12 16 1031.1 - 0.0
19/07:00pm 16.7 10.2 2.7 39 6.4 SE 26 33 14 18 1030.5 - 0.0
19/06:30pm 17.3 10.8 2.5 37 6.7 SE 26 32 14 17 1030.0 - 0.0
19/06:00pm 17.8 10.5 2.5 36 6.9 SE 30 35 16 19 1029.5 1029.4 0.0
19/05:30pm 18.6 12.0 2.0 33 7.6 SSE 26 35 14 19 1029.0 - 0.0
19/05:00pm 19.4 11.8 2.7 33 7.8 SE 32 46 17 25 1028.7 - 0.0
19/04:30pm 19.9 12.9 1.8 30 8.3 SE 28 35 15 19 1028.5 - 0.0
19/04:00pm 20.3 12.6 2.2 30 8.4 SSE 32 43 17 23 1028.2 - 0.0
19/03:30pm 20.4 12.7 2.3 30 8.4 SSE 32 43 17 23 1028.2 - 0.0
19/03:00pm 20.3 12.5 2.6 31 8.2 SSE 33 48 18 26 1028.0 1027.9 0.0
19/02:52pm 20.7 13.5 3.0 31 8.4 SSE 30 48 16 26 1027.9 - 0.0
19/02:30pm 20.4 13.2 3.2 32 8.1 SE 30 41 16 22 1027.9 - 0.0
19/02:12pm 20.9 14.3 4.0 33 8.2 SE 28 46 15 25 1027.7 - 0.0
19/02:00pm 20.1 12.9 2.9 32 8.1 SSE 30 39 16 21 1027.9 - 0.0
19/01:30pm 20.1 13.5 4.2 35 7.7 SSE 28 41 15 22 1028.0 - 0.0
19/01:00pm 20.3 13.5 5.1 37 7.5 SSE 30 37 16 20 1028.1 - 0.0
19/12:30pm 19.8 13.7 6.5 42 6.7 SSE 28 39 15 21 1028.5 - 0.0
19/12:00pm 19.3 13.5 6.4 43 6.4 SSE 26 41 14 22 1028.9 1028.8 0.0
19/11:30am 19.4 13.0 6.8 44 6.4 SE 30 43 16 23 1028.9 - 0.0
19/11:00am 18.9 12.9 8.6 51 5.4 SE 30 39 16 21 1029.1 - 0.0
19/10:30am 19.1 13.9 9.0 52 5.3 SE 26 39 14 21 1029.0 - 0.0
19/10:00am 18.2 12.3 9.0 55 4.8 SSE 30 37 16 20 1028.8 - 0.0
19/09:30am 17.4 10.9 8.8 57 4.4 SSE 33 41 18 22 1028.6 - 0.0
19/09:00am 17.0 10.8 9.4 61 3.9 SE 32 39 17 21 1028.3 1028.2 0.0
19/08:30am 16.2 10.6 10.3 68 3.1 SE 30 35 16 19 1028.0 - 0.0
19/08:00am 15.7 11.9 12.3 80 1.9 SSE 24 30 13 16 1027.4 - 0.0
19/07:30am 15.0 10.6 11.8 81 1.7 SSE 26 32 14 17 1027.0 - 0.0
19/07:00am 14.1 9.7 11.8 86 1.2 S 26 33 14 18 1026.3 - 0.0
19/06:30am 13.7 9.3 11.7 88 1.1 S 26 35 14 19 1025.7 - 0.0
19/06:00am 14.0 9.1 12.6 91 0.8 S 30 37 16 20 1025.1 1025.0 0.0
19/05:30am 14.0 10.4 13.2 95 0.4 S 24 32 13 17 1024.8 - 0.0
19/05:00am 14.4 10.2 13.6 95 0.4 S 28 33 15 18 1024.5 - 0.0
19/04:30am 14.5 10.4 13.7 95 0.4 S 28 35 15 19 1023.8 - 0.0
19/04:00am 15.1 12.9 14.3 95 0.5 SSW 19 24 10 13 1023.4 - 0.0
19/03:30am 15.1 12.0 13.3 89 1.0 SSW 22 28 12 15 1023.3 - 0.0
19/03:00am 15.5 12.2 12.8 84 1.5 SSW 22 32 12 17 1023.2 1023.1 0.0
19/02:30am 13.0 12.5 12.2 95 0.4 SSW 6 11 3 6 1023.3 - 0.0
19/02:00am 13.2 12.1 11.8 91 0.7 SSW 9 13 5 7 1023.4 - 0.0
19/01:30am 13.5 13.1 11.0 85 1.3 WSW 4 7 2 4 1023.7 - 0.0
19/01:00am 14.2 13.1 10.8 80 1.8 SW 7 11 4 6 1023.6 - 0.0
19/12:30am 15.1 12.6 10.9 76 2.2 SSW 15 17 8 9 1023.6 - 0.0
19/12:00am 14.5 13.4 10.5 77 2.1 SW 7 9 4 5 1023.5 1023.4 0.0
 
Date/Time
CST
Temp
°C
App
Temp
°C
Dew
Point
Rel
Hum
%
Delta-T
°C
Wind Press
QNH
hPa
Press
MSL
hPa
Rain
since 9 am
mm
Dir
 
Spd
km/h
Gust
km/h
Spd
kts
Gust
kts
18/11:30pm 15.0 12.5 11.2 78 2.0 SSW 15 17 8 9 1023.4 - 0.0
18/11:00pm 14.4 12.9 10.6 78 2.0 SSW 9 13 5 7 1023.4 - 0.0

Other Formats:

Comma delimited format used in spreadsheet applications
http://www.bom.gov.au/fwo/IDS60801/IDS60801.95480.axf

JavaScript Object Notation format (JSON) in row-major order
http://www.bom.gov.au/fwo/IDS60801/IDS60801.95480.json